sensor_id;sensor_type;location;lat;lon;timestamp;pressure;altitude;pressure_sealevel;temperature;humidity
59493;BME280;45497;43.996;22.876;2023-04-05T00:00:26;100896.13;;;5.86;52.01
59493;BME280;45497;43.996;22.876;2023-04-05T00:02:53;100895.56;;;5.82;53.23
59493;BME280;45497;43.996;22.876;2023-04-05T00:05:18;100896.81;;;5.88;52.45
59493;BME280;45497;43.996;22.876;2023-04-05T00:07:53;100898.78;;;5.96;51.90
59493;BME280;45497;43.996;22.876;2023-04-05T00:10:19;100895.38;;;6.15;51.81
59493;BME280;45497;43.996;22.876;2023-04-05T00:12:44;100894.56;;;6.14;51.53
59493;BME280;45497;43.996;22.876;2023-04-05T00:15:10;100897.19;;;6.14;51.96
59493;BME280;45497;43.996;22.876;2023-04-05T00:17:36;100886.06;;;6.01;51.68
59493;BME280;45497;43.996;22.876;2023-04-05T00:20:01;100889.94;;;6.06;51.80
59493;BME280;45497;43.996;22.876;2023-04-05T00:22:31;100884.56;;;6.08;51.90
59493;BME280;45497;43.996;22.876;2023-04-05T00:25:00;100879.78;;;5.92;52.02
59493;BME280;45497;43.996;22.876;2023-04-05T00:27:26;100876.03;;;5.75;51.70
59493;BME280;45497;43.996;22.876;2023-04-05T00:29:51;100880.22;;;5.87;51.80
59493;BME280;45497;43.996;22.876;2023-04-05T00:32:17;100881.72;;;5.90;52.06
59493;BME280;45497;43.996;22.876;2023-04-05T00:34:42;100881.22;;;5.96;52.15
59493;BME280;45497;43.996;22.876;2023-04-05T00:37:08;100884.06;;;5.83;51.94
59493;BME280;45497;43.996;22.876;2023-04-05T00:39:33;100884.69;;;5.97;51.67
59493;BME280;45497;43.996;22.876;2023-04-05T00:42:01;100884.00;;;6.04;51.98
59493;BME280;45497;43.996;22.876;2023-04-05T00:44:28;100877.16;;;5.92;51.67
59493;BME280;45497;43.996;22.876;2023-04-05T00:46:54;100883.44;;;6.01;51.67
59493;BME280;45497;43.996;22.876;2023-04-05T00:49:20;100881.78;;;6.09;52.19
59493;BME280;45497;43.996;22.876;2023-04-05T00:51:46;100866.00;;;6.09;51.56
59493;BME280;45497;43.996;22.876;2023-04-05T00:54:12;100864.50;;;6.07;51.46
59493;BME280;45497;43.996;22.876;2023-04-05T00:56:39;100878.03;;;6.12;52.24
59493;BME280;45497;43.996;22.876;2023-04-05T00:59:05;100876.78;;;6.06;51.64
59493;BME280;45497;43.996;22.876;2023-04-05T01:01:31;100866.06;;;5.88;51.55
59493;BME280;45497;43.996;22.876;2023-04-05T01:04:02;100878.09;;;5.81;51.92
59493;BME280;45497;43.996;22.876;2023-04-05T01:11:38;100873.97;;;5.88;52.11
59493;BME280;45497;43.996;22.876;2023-04-05T01:14:03;100870.50;;;5.88;51.91
59493;BME280;45497;43.996;22.876;2023-04-05T01:16:29;100867.78;;;5.99;52.14
59493;BME280;45497;43.996;22.876;2023-04-05T01:18:54;100866.97;;;5.99;51.34
59493;BME280;45497;43.996;22.876;2023-04-05T01:26:55;100860.19;;;6.06;51.50
59493;BME280;45497;43.996;22.876;2023-04-05T01:29:38;100872.81;;;6.22;52.09
59493;BME280;45497;43.996;22.876;2023-04-05T01:34:56;100864.06;;;6.11;51.55
59493;BME280;45497;43.996;22.876;2023-04-05T01:37:29;100871.81;;;6.23;51.63
59493;BME280;45497;43.996;22.876;2023-04-05T01:39:58;100872.94;;;6.20;51.53
59493;BME280;45497;43.996;22.876;2023-04-05T01:42:24;100865.19;;;6.09;51.14
59493;BME280;45497;43.996;22.876;2023-04-05T01:44:52;100865.44;;;6.06;51.72
59493;BME280;45497;43.996;22.876;2023-04-05T01:47:18;100878.59;;;6.06;51.53
59493;BME280;45497;43.996;22.876;2023-04-05T01:49:44;100875.97;;;5.96;51.70
59493;BME280;45497;43.996;22.876;2023-04-05T01:52:10;100872.34;;;5.97;51.46
59493;BME280;45497;43.996;22.876;2023-04-05T01:54:36;100867.78;;;5.99;51.29
59493;BME280;45497;43.996;22.876;2023-04-05T01:57:01;100869.25;;;5.92;51.80
59493;BME280;45497;43.996;22.876;2023-04-05T01:59:27;100873.47;;;6.04;51.60
59493;BME280;45497;43.996;22.876;2023-04-05T02:01:53;100867.38;;;6.04;51.39
59493;BME280;45497;43.996;22.876;2023-04-05T02:04:18;100864.50;;;6.07;51.81
59493;BME280;45497;43.996;22.876;2023-04-05T02:06:44;100865.59;;;6.14;51.45
59493;BME280;45497;43.996;22.876;2023-04-05T02:09:09;100873.19;;;6.17;51.32
59493;BME280;45497;43.996;22.876;2023-04-05T02:11:35;100870.56;;;6.17;51.26
59493;BME280;45497;43.996;22.876;2023-04-05T02:14:00;100872.94;;;6.10;51.47
59493;BME280;45497;43.996;22.876;2023-04-05T02:16:26;100876.00;;;6.25;52.06
59493;BME280;45497;43.996;22.876;2023-04-05T02:18:54;100877.25;;;6.21;51.53
59493;BME280;45497;43.996;22.876;2023-04-05T02:21:22;100874.06;;;6.18;51.40
59493;BME280;45497;43.996;22.876;2023-04-05T02:23:48;100879.84;;;6.11;51.67
59493;BME280;45497;43.996;22.876;2023-04-05T02:26:14;100880.66;;;6.12;52.00
59493;BME280;45497;43.996;22.876;2023-04-05T02:28:40;100874.47;;;6.03;51.95
59493;BME280;45497;43.996;22.876;2023-04-05T02:31:12;100888.88;;;6.09;51.57
59493;BME280;45497;43.996;22.876;2023-04-05T02:33:38;100871.81;;;6.03;52.34
59493;BME280;45497;43.996;22.876;2023-04-05T02:36:10;100887.81;;;5.90;52.39
59493;BME280;45497;43.996;22.876;2023-04-05T02:38:36;100875.88;;;5.77;52.47
59493;BME280;45497;43.996;22.876;2023-04-05T02:41:02;100887.13;;;5.88;52.41
59493;BME280;45497;43.996;22.876;2023-04-05T02:43:28;100886.16;;;5.89;52.60
59493;BME280;45497;43.996;22.876;2023-04-05T02:45:53;100894.44;;;5.85;53.02
59493;BME280;45497;43.996;22.876;2023-04-05T02:48:19;100892.69;;;5.95;53.12
59493;BME280;45497;43.996;22.876;2023-04-05T02:50:49;100893.94;;;5.91;52.75
59493;BME280;45497;43.996;22.876;2023-04-05T02:53:18;100890.72;;;5.87;53.01
59493;BME280;45497;43.996;22.876;2023-04-05T02:55:53;100890.72;;;5.87;52.95
59493;BME280;45497;43.996;22.876;2023-04-05T02:58:19;100895.31;;;5.85;52.94
59493;BME280;45497;43.996;22.876;2023-04-05T03:00:48;100890.00;;;5.75;52.54
59493;BME280;45497;43.996;22.876;2023-04-05T03:03:22;100882.22;;;5.74;52.90
59493;BME280;45497;43.996;22.876;2023-04-05T03:05:48;100900.28;;;5.88;52.83
59493;BME280;45497;43.996;22.876;2023-04-05T03:08:21;100898.88;;;5.84;52.65
59493;BME280;45497;43.996;22.876;2023-04-05T03:10:50;100894.81;;;5.70;53.17
59493;BME280;45497;43.996;22.876;2023-04-05T03:13:16;100900.50;;;5.66;52.60
59493;BME280;45497;43.996;22.876;2023-04-05T03:15:42;100896.56;;;5.50;53.18
59493;BME280;45497;43.996;22.876;2023-04-05T03:18:08;100905.63;;;5.67;53.18
59493;BME280;45497;43.996;22.876;2023-04-05T03:20:34;100906.00;;;5.53;53.68
59493;BME280;45497;43.996;22.876;2023-04-05T03:23:07;100906.28;;;5.60;52.82
59493;BME280;45497;43.996;22.876;2023-04-05T03:25:36;100903.63;;;5.50;53.19
59493;BME280;45497;43.996;22.876;2023-04-05T03:28:03;100906.56;;;5.66;53.25
59493;BME280;45497;43.996;22.876;2023-04-05T03:30:31;100908.78;;;5.61;53.05
59493;BME280;45497;43.996;22.876;2023-04-05T03:32:56;100908.28;;;5.77;52.85
59493;BME280;45497;43.996;22.876;2023-04-05T03:35:26;100908.41;;;5.75;52.46
59493;BME280;45497;43.996;22.876;2023-04-05T03:37:52;100911.34;;;5.82;52.78
59493;BME280;45497;43.996;22.876;2023-04-05T03:40:17;100904.53;;;5.80;52.89
59493;BME280;45497;43.996;22.876;2023-04-05T03:42:43;100899.94;;;5.62;53.51
59493;BME280;45497;43.996;22.876;2023-04-05T03:45:09;100908.66;;;5.72;52.92
59493;BME280;45497;43.996;22.876;2023-04-05T03:47:35;100907.16;;;5.70;53.05
59493;BME280;45497;43.996;22.876;2023-04-05T03:50:01;100914.28;;;5.58;53.47
59493;BME280;45497;43.996;22.876;2023-04-05T03:52:28;100912.78;;;5.55;53.80
59493;BME280;45497;43.996;22.876;2023-04-05T03:54:53;100899.00;;;5.73;53.44
59493;BME280;45497;43.996;22.876;2023-04-05T03:57:19;100907.16;;;5.80;53.06
59493;BME280;45497;43.996;22.876;2023-04-05T03:59:44;100906.00;;;5.63;53.18
59493;BME280;45497;43.996;22.876;2023-04-05T04:02:10;100910.00;;;5.26;53.44
59493;BME280;45497;43.996;22.876;2023-04-05T04:04:36;100909.44;;;5.02;53.96
59493;BME280;45497;43.996;22.876;2023-04-05T04:07:01;100909.72;;;5.29;53.75
59493;BME280;45497;43.996;22.876;2023-04-05T04:09:27;100925.31;;;5.42;54.01
59493;BME280;45497;43.996;22.876;2023-04-05T04:11:54;100925.16;;;5.44;53.82
59493;BME280;45497;43.996;22.876;2023-04-05T04:14:21;100914.69;;;5.23;53.82
59493;BME280;45497;43.996;22.876;2023-04-05T04:16:46;100924.00;;;5.36;53.58
59493;BME280;45497;43.996;22.876;2023-04-05T04:19:12;100924.31;;;5.33;53.83
59493;BME280;45497;43.996;22.876;2023-04-05T04:21:37;100916.22;;;5.25;53.78
59493;BME280;45497;43.996;22.876;2023-04-05T04:24:04;100916.66;;;5.30;53.90
59493;BME280;45497;43.996;22.876;2023-04-05T04:26:30;100922.88;;;5.29;54.13
59493;BME280;45497;43.996;22.876;2023-04-05T04:29:02;100923.97;;;5.27;53.79
59493;BME280;45497;43.996;22.876;2023-04-05T04:31:30;100914.66;;;5.44;53.67
59493;BME280;45497;43.996;22.876;2023-04-05T04:33:57;100928.13;;;5.29;53.59
59493;BME280;45497;43.996;22.876;2023-04-05T04:36:23;100925.69;;;5.38;53.59
59493;BME280;45497;43.996;22.876;2023-04-05T04:39:01;100910.97;;;5.25;54.15
59493;BME280;45497;43.996;22.876;2023-04-05T04:41:30;100918.72;;;5.27;53.85
59493;BME280;45497;43.996;22.876;2023-04-05T04:44:01;100924.22;;;5.24;54.35
59493;BME280;45497;43.996;22.876;2023-04-05T04:46:32;100917.91;;;5.26;53.62
59493;BME280;45497;43.996;22.876;2023-04-05T04:49:07;100921.31;;;5.17;54.41
59493;BME280;45497;43.996;22.876;2023-04-05T04:51:32;100922.19;;;5.27;54.13
59493;BME280;45497;43.996;22.876;2023-04-05T04:53:58;100919.97;;;5.23;54.23
59493;BME280;45497;43.996;22.876;2023-04-05T04:56:23;100920.00;;;5.32;53.86
59493;BME280;45497;43.996;22.876;2023-04-05T04:58:49;100922.38;;;5.35;54.08
59493;BME280;45497;43.996;22.876;2023-04-05T05:01:14;100924.56;;;5.30;54.55
59493;BME280;45497;43.996;22.876;2023-04-05T05:03:41;100934.47;;;5.48;53.87
59493;BME280;45497;43.996;22.876;2023-04-05T05:06:07;100936.66;;;5.73;53.91
59493;BME280;45497;43.996;22.876;2023-04-05T05:08:33;100936.47;;;5.65;53.44
59493;BME280;45497;43.996;22.876;2023-04-05T05:10:59;100939.28;;;5.73;53.85
59493;BME280;45497;43.996;22.876;2023-04-05T05:13:24;100937.34;;;5.75;53.49
59493;BME280;45497;43.996;22.876;2023-04-05T05:15:50;100936.84;;;5.91;53.53
59493;BME280;45497;43.996;22.876;2023-04-05T05:18:16;100930.00;;;5.69;53.40
59493;BME280;45497;43.996;22.876;2023-04-05T05:20:42;100924.81;;;5.58;53.57
59493;BME280;45497;43.996;22.876;2023-04-05T05:23:07;100937.91;;;5.79;53.37
59493;BME280;45497;43.996;22.876;2023-04-05T05:25:33;100938.97;;;5.67;53.42
59493;BME280;45497;43.996;22.876;2023-04-05T05:27:58;100940.78;;;5.76;52.83
59493;BME280;45497;43.996;22.876;2023-04-05T05:30:24;100935.16;;;5.81;52.60
59493;BME280;45497;43.996;22.876;2023-04-05T05:32:51;100946.34;;;6.04;52.09
59493;BME280;45497;43.996;22.876;2023-04-05T05:35:17;100952.97;;;5.98;52.26
59493;BME280;45497;43.996;22.876;2023-04-05T05:37:42;100942.44;;;5.98;52.53
59493;BME280;45497;43.996;22.876;2023-04-05T05:40:09;100947.00;;;5.96;52.38
59493;BME280;45497;43.996;22.876;2023-04-05T05:42:37;100951.50;;;5.94;52.65
59493;BME280;45497;43.996;22.876;2023-04-05T05:45:04;100956.31;;;5.79;51.37
59493;BME280;45497;43.996;22.876;2023-04-05T05:47:31;100953.44;;;5.82;51.93
59493;BME280;45497;43.996;22.876;2023-04-05T05:49:56;100945.06;;;5.98;52.02
59493;BME280;45497;43.996;22.876;2023-04-05T05:52:22;100949.22;;;6.01;51.87
59493;BME280;45497;43.996;22.876;2023-04-05T05:54:47;100949.66;;;6.16;51.21
59493;BME280;45497;43.996;22.876;2023-04-05T05:57:13;100952.28;;;6.06;50.80
59493;BME280;45497;43.996;22.876;2023-04-05T05:59:38;100952.00;;;5.68;51.60
59493;BME280;45497;43.996;22.876;2023-04-05T06:02:06;100960.34;;;5.83;51.42
59493;BME280;45497;43.996;22.876;2023-04-05T06:04:31;100951.94;;;5.89;51.48
59493;BME280;45497;43.996;22.876;2023-04-05T06:06:58;100957.31;;;5.88;50.95
59493;BME280;45497;43.996;22.876;2023-04-05T06:09:25;100956.69;;;5.96;51.65
59493;BME280;45497;43.996;22.876;2023-04-05T06:11:53;100955.22;;;6.22;50.97
59493;BME280;45497;43.996;22.876;2023-04-05T06:14:19;100959.69;;;6.31;50.73
59493;BME280;45497;43.996;22.876;2023-04-05T06:16:44;100954.22;;;6.04;51.13
59493;BME280;45497;43.996;22.876;2023-04-05T06:19:10;100938.75;;;6.10;50.88
59493;BME280;45497;43.996;22.876;2023-04-05T06:21:36;100957.34;;;6.28;50.60
59493;BME280;45497;43.996;22.876;2023-04-05T06:24:01;100962.00;;;6.05;50.35
59493;BME280;45497;43.996;22.876;2023-04-05T06:26:27;100959.94;;;6.19;50.54
59493;BME280;45497;43.996;22.876;2023-04-05T06:28:54;100959.16;;;6.47;50.38
59493;BME280;45497;43.996;22.876;2023-04-05T06:31:26;100959.06;;;6.08;49.79
59493;BME280;45497;43.996;22.876;2023-04-05T06:33:52;100961.28;;;6.03;49.98
59493;BME280;45497;43.996;22.876;2023-04-05T06:36:17;100962.34;;;6.41;49.95
59493;BME280;45497;43.996;22.876;2023-04-05T06:38:43;100967.75;;;6.59;49.62
59493;BME280;45497;43.996;22.876;2023-04-05T06:41:08;100964.28;;;6.49;49.90
59493;BME280;45497;43.996;22.876;2023-04-05T06:43:34;100955.69;;;6.47;49.77
59493;BME280;45497;43.996;22.876;2023-04-05T06:45:59;100957.06;;;6.51;49.48
59493;BME280;45497;43.996;22.876;2023-04-05T06:48:26;100967.63;;;6.80;49.65
59493;BME280;45497;43.996;22.876;2023-04-05T06:50:59;100962.63;;;6.77;48.90
59493;BME280;45497;43.996;22.876;2023-04-05T06:53:26;100962.63;;;6.67;48.54
59493;BME280;45497;43.996;22.876;2023-04-05T06:55:56;100973.44;;;6.64;49.39
59493;BME280;45497;43.996;22.876;2023-04-05T06:58:22;100978.16;;;6.90;48.45
59493;BME280;45497;43.996;22.876;2023-04-05T07:00:51;100979.38;;;7.25;48.94
59493;BME280;45497;43.996;22.876;2023-04-05T07:03:17;100977.31;;;6.99;48.13
59493;BME280;45497;43.996;22.876;2023-04-05T07:05:52;100982.72;;;7.07;48.68
59493;BME280;45497;43.996;22.876;2023-04-05T07:08:22;100976.88;;;7.23;48.77
59493;BME280;45497;43.996;22.876;2023-04-05T07:10:48;100995.63;;;7.11;47.63
59493;BME280;45497;43.996;22.876;2023-04-05T07:13:14;100994.53;;;7.13;47.87
59493;BME280;45497;43.996;22.876;2023-04-05T07:15:42;101002.41;;;7.03;47.67
59493;BME280;45497;43.996;22.876;2023-04-05T07:18:07;101002.56;;;7.02;48.15
59493;BME280;45497;43.996;22.876;2023-04-05T07:20:33;100991.72;;;7.15;47.91
59493;BME280;45497;43.996;22.876;2023-04-05T07:22:58;100988.78;;;7.37;48.24
59493;BME280;45497;43.996;22.876;2023-04-05T07:25:24;100998.19;;;7.40;47.45
59493;BME280;45497;43.996;22.876;2023-04-05T07:27:50;100994.94;;;7.08;47.29
59493;BME280;45497;43.996;22.876;2023-04-05T07:30:17;101002.00;;;7.27;48.38
59493;BME280;45497;43.996;22.876;2023-04-05T07:32:42;100994.75;;;7.39;47.74
59493;BME280;45497;43.996;22.876;2023-04-05T07:35:08;100992.66;;;7.53;48.63
59493;BME280;45497;43.996;22.876;2023-04-05T07:37:33;100999.50;;;7.73;47.50
59493;BME280;45497;43.996;22.876;2023-04-05T07:39:59;100993.56;;;7.61;47.27
59493;BME280;45497;43.996;22.876;2023-04-05T07:42:24;100996.00;;;7.35;48.18
59493;BME280;45497;43.996;22.876;2023-04-05T07:44:52;100994.41;;;7.62;47.71
59493;BME280;45497;43.996;22.876;2023-04-05T07:47:17;100996.47;;;7.68;47.23
59493;BME280;45497;43.996;22.876;2023-04-05T07:49:43;101000.78;;;7.69;47.13
59493;BME280;45497;43.996;22.876;2023-04-05T07:52:08;100996.91;;;7.63;47.36
59493;BME280;45497;43.996;22.876;2023-04-05T07:54:34;100994.81;;;7.67;47.44
59493;BME280;45497;43.996;22.876;2023-04-05T07:57:04;101001.47;;;7.71;47.17
59493;BME280;45497;43.996;22.876;2023-04-05T07:59:29;101004.94;;;7.72;46.69
59493;BME280;45497;43.996;22.876;2023-04-05T08:01:55;101010.97;;;7.92;47.14
59493;BME280;45497;43.996;22.876;2023-04-05T08:04:20;101019.97;;;7.99;46.71
59493;BME280;45497;43.996;22.876;2023-04-05T08:06:47;101014.75;;;7.89;46.33
59493;BME280;45497;43.996;22.876;2023-04-05T08:09:12;101024.69;;;7.95;47.05
59493;BME280;45497;43.996;22.876;2023-04-05T08:11:38;101019.28;;;7.97;46.70
59493;BME280;45497;43.996;22.876;2023-04-05T08:14:04;101032.69;;;8.13;46.89
59493;BME280;45497;43.996;22.876;2023-04-05T08:16:29;101028.22;;;8.14;46.21
59493;BME280;45497;43.996;22.876;2023-04-05T08:18:55;101025.41;;;8.25;46.89
59493;BME280;45497;43.996;22.876;2023-04-05T08:21:21;101036.66;;;8.27;45.36
59493;BME280;45497;43.996;22.876;2023-04-05T08:23:47;101037.75;;;8.24;46.66
59493;BME280;45497;43.996;22.876;2023-04-05T08:26:14;101034.56;;;8.31;46.65
59493;BME280;45497;43.996;22.876;2023-04-05T08:28:40;101030.31;;;8.20;45.12
59493;BME280;45497;43.996;22.876;2023-04-05T08:31:05;101022.59;;;7.61;46.43
59493;BME280;45497;43.996;22.876;2023-04-05T08:33:31;101030.50;;;7.61;45.69
59493;BME280;45497;43.996;22.876;2023-04-05T08:35:56;101031.75;;;7.67;45.71
59493;BME280;45497;43.996;22.876;2023-04-05T08:38:22;101030.91;;;7.66;45.53
59493;BME280;45497;43.996;22.876;2023-04-05T08:40:48;101043.66;;;7.81;45.42
59493;BME280;45497;43.996;22.876;2023-04-05T08:43:22;101035.13;;;7.40;45.45
59493;BME280;45497;43.996;22.876;2023-04-05T08:45:51;101033.63;;;7.27;45.08
59493;BME280;45497;43.996;22.876;2023-04-05T08:48:17;101043.34;;;7.27;45.08
59493;BME280;45497;43.996;22.876;2023-04-05T08:50:50;101058.47;;;6.96;46.07
59493;BME280;45497;43.996;22.876;2023-04-05T08:53:16;101051.25;;;6.98;46.55
59493;BME280;45497;43.996;22.876;2023-04-05T08:55:42;101057.63;;;7.34;46.31
59493;BME280;45497;43.996;22.876;2023-04-05T08:58:12;101056.38;;;7.38;46.15
59493;BME280;45497;43.996;22.876;2023-04-05T09:00:39;101069.41;;;7.50;45.86
59493;BME280;45497;43.996;22.876;2023-04-05T09:03:07;101069.28;;;7.32;46.12
59493;BME280;45497;43.996;22.876;2023-04-05T09:15:46;101050.31;;;7.85;45.51
59493;BME280;45497;43.996;22.876;2023-04-05T09:18:13;101062.78;;;7.93;45.24
59493;BME280;45497;43.996;22.876;2023-04-05T09:20:39;101050.91;;;8.07;45.18
59493;BME280;45497;43.996;22.876;2023-04-05T09:23:06;101045.72;;;7.87;45.45
59493;BME280;45497;43.996;22.876;2023-04-05T09:25:35;101056.97;;;7.79;45.44
59493;BME280;45497;43.996;22.876;2023-04-05T09:28:04;101046.75;;;7.66;45.75
59493;BME280;45497;43.996;22.876;2023-04-05T09:30:29;101055.56;;;7.95;44.95
59493;BME280;45497;43.996;22.876;2023-04-05T09:32:55;101060.97;;;7.93;44.06
59493;BME280;45497;43.996;22.876;2023-04-05T09:35:22;101047.59;;;7.67;45.43
59493;BME280;45497;43.996;22.876;2023-04-05T09:37:57;101049.41;;;7.57;46.32
59493;BME280;45497;43.996;22.876;2023-04-05T09:40:23;101058.38;;;7.83;45.24
59493;BME280;45497;43.996;22.876;2023-04-05T09:42:48;101061.22;;;7.53;45.58
59493;BME280;45497;43.996;22.876;2023-04-05T09:45:16;101059.78;;;7.68;45.34
59493;BME280;45497;43.996;22.876;2023-04-05T09:47:52;101055.66;;;7.56;45.25
59493;BME280;45497;43.996;22.876;2023-04-05T09:50:19;101048.75;;;7.92;45.75
59493;BME280;45497;43.996;22.876;2023-04-05T09:52:45;101059.41;;;7.53;45.77
59493;BME280;45497;43.996;22.876;2023-04-05T09:55:12;101042.25;;;7.30;45.36
59493;BME280;45497;43.996;22.876;2023-04-05T09:57:39;101061.38;;;7.51;45.77
59493;BME280;45497;43.996;22.876;2023-04-05T10:00:07;101041.09;;;7.52;45.28
59493;BME280;45497;43.996;22.876;2023-04-05T10:02:41;101060.94;;;7.36;45.48
59493;BME280;45497;43.996;22.876;2023-04-05T10:05:08;101069.41;;;7.50;46.00
59493;BME280;45497;43.996;22.876;2023-04-05T10:07:42;101066.47;;;7.62;46.24
59493;BME280;45497;43.996;22.876;2023-04-05T10:10:09;101071.31;;;7.77;45.93
59493;BME280;45497;43.996;22.876;2023-04-05T10:12:39;101079.53;;;7.54;45.81
59493;BME280;45497;43.996;22.876;2023-04-05T10:15:09;101073.69;;;7.51;45.89
59493;BME280;45497;43.996;22.876;2023-04-05T10:20:21;101084.00;;;8.38;45.01
59493;BME280;45497;43.996;22.876;2023-04-05T10:23:06;101075.31;;;7.91;44.70
59493;BME280;45497;43.996;22.876;2023-04-05T10:44:36;101079.25;;;7.57;44.51
59493;BME280;45497;43.996;22.876;2023-04-05T10:57:27;101089.19;;;8.86;44.40
59493;BME280;45497;43.996;22.876;2023-04-05T10:59:54;101092.50;;;8.70;42.67
59493;BME280;45497;43.996;22.876;2023-04-05T11:02:20;101091.03;;;8.57;44.18
59493;BME280;45497;43.996;22.876;2023-04-05T11:04:52;101086.22;;;8.71;43.58
59493;BME280;45497;43.996;22.876;2023-04-05T11:07:19;101104.94;;;8.59;43.67
59493;BME280;45497;43.996;22.876;2023-04-05T11:09:59;101094.31;;;8.32;44.74
59493;BME280;45497;43.996;22.876;2023-04-05T11:20:42;101108.47;;;8.40;43.80
59493;BME280;45497;43.996;22.876;2023-04-05T11:23:09;101088.19;;;8.41;44.49
59493;BME280;45497;43.996;22.876;2023-04-05T11:25:39;101085.97;;;9.10;43.22
59493;BME280;45497;43.996;22.876;2023-04-05T11:28:05;101085.63;;;9.49;43.37
59493;BME280;45497;43.996;22.876;2023-04-05T11:30:51;101084.22;;;9.36;42.75
59493;BME280;45497;43.996;22.876;2023-04-05T11:33:37;101092.03;;;9.20;42.79
59493;BME280;45497;43.996;22.876;2023-04-05T11:36:03;101106.50;;;9.16;43.67
59493;BME280;45497;43.996;22.876;2023-04-05T11:38:29;101088.91;;;9.25;42.76
59493;BME280;45497;43.996;22.876;2023-04-05T11:43:36;101097.28;;;9.38;42.73
59493;BME280;45497;43.996;22.876;2023-04-05T11:46:03;101081.34;;;9.30;42.75
59493;BME280;45497;43.996;22.876;2023-04-05T11:48:29;101094.41;;;8.95;43.36
59493;BME280;45497;43.996;22.876;2023-04-05T11:50:56;101079.91;;;8.99;43.26
59493;BME280;45497;43.996;22.876;2023-04-05T11:53:21;101090.56;;;9.26;42.57
59493;BME280;45497;43.996;22.876;2023-04-05T11:55:49;101085.63;;;9.49;42.85
59493;BME280;45497;43.996;22.876;2023-04-05T11:58:20;101087.53;;;9.38;42.48
59493;BME280;45497;43.996;22.876;2023-04-05T12:00:58;101090.06;;;9.66;42.35
59493;BME280;45497;43.996;22.876;2023-04-05T12:03:26;101086.06;;;9.62;41.99
59493;BME280;45497;43.996;22.876;2023-04-05T12:05:54;101092.56;;;9.68;41.94
59493;BME280;45497;43.996;22.876;2023-04-05T12:08:21;101099.94;;;9.82;41.46
59493;BME280;45497;43.996;22.876;2023-04-05T12:10:56;101089.56;;;9.45;41.47
59493;BME280;45497;43.996;22.876;2023-04-05T12:13:29;101089.75;;;9.69;42.77
59493;BME280;45497;43.996;22.876;2023-04-05T12:16:04;101080.09;;;9.86;41.85
59493;BME280;45497;43.996;22.876;2023-04-05T12:18:35;101099.91;;;9.56;42.18
59493;BME280;45497;43.996;22.876;2023-04-05T12:21:04;101084.91;;;9.38;42.14
59493;BME280;45497;43.996;22.876;2023-04-05T12:23:30;101090.34;;;9.37;41.42
59493;BME280;45497;43.996;22.876;2023-04-05T12:25:57;101097.38;;;9.28;42.30
59493;BME280;45497;43.996;22.876;2023-04-05T12:28:22;101088.25;;;9.49;42.08
59493;BME280;45497;43.996;22.876;2023-04-05T12:30:49;101093.22;;;9.70;41.93
59493;BME280;45497;43.996;22.876;2023-04-05T12:33:27;101089.31;;;9.56;41.35
59493;BME280;45497;43.996;22.876;2023-04-05T12:35:54;101075.50;;;9.44;41.64
59493;BME280;45497;43.996;22.876;2023-04-05T12:38:19;101092.13;;;9.54;41.46
59493;BME280;45497;43.996;22.876;2023-04-05T12:40:45;101094.78;;;9.54;41.80
59493;BME280;45497;43.996;22.876;2023-04-05T12:43:11;101093.56;;;9.49;41.38
59493;BME280;45497;43.996;22.876;2023-04-05T12:45:43;101096.47;;;9.19;41.47
59493;BME280;45497;43.996;22.876;2023-04-05T12:48:14;101111.09;;;8.78;43.17
59493;BME280;45497;43.996;22.876;2023-04-05T12:50:45;101101.75;;;8.56;42.78
59493;BME280;45497;43.996;22.876;2023-04-05T12:53:19;101101.63;;;8.57;43.15
59493;BME280;45497;43.996;22.876;2023-04-05T12:55:50;101102.56;;;8.56;42.32
59493;BME280;45497;43.996;22.876;2023-04-05T12:58:16;101108.72;;;8.75;42.96
59493;BME280;45497;43.996;22.876;2023-04-05T13:00:42;101099.59;;;8.69;42.85
59493;BME280;45497;43.996;22.876;2023-04-05T13:14:30;101106.66;;;9.32;41.75
59493;BME280;45497;43.996;22.876;2023-04-05T13:16:55;101105.81;;;9.14;41.14
59493;BME280;45497;43.996;22.876;2023-04-05T13:19:21;101103.94;;;9.06;41.88
59493;BME280;45497;43.996;22.876;2023-04-05T13:21:46;101105.81;;;8.96;42.27
59493;BME280;45497;43.996;22.876;2023-04-05T13:37:59;101096.44;;;8.84;41.79
59493;BME280;45497;43.996;22.876;2023-04-05T13:40:25;101088.06;;;8.88;41.48
59493;BME280;45497;43.996;22.876;2023-04-05T13:42:51;101102.91;;;9.17;41.27
59493;BME280;45497;43.996;22.876;2023-04-05T13:45:17;101103.88;;;9.16;41.35
59493;BME280;45497;43.996;22.876;2023-04-05T13:47:42;101096.00;;;8.88;40.67
59493;BME280;45497;43.996;22.876;2023-04-05T13:50:08;101092.66;;;8.68;41.09
59493;BME280;45497;43.996;22.876;2023-04-05T13:52:34;101102.81;;;8.63;41.61
59493;BME280;45497;43.996;22.876;2023-04-05T13:54:59;101097.81;;;8.88;41.69
59493;BME280;45497;43.996;22.876;2023-04-05T13:57:25;101102.59;;;9.20;41.93
59493;BME280;45497;43.996;22.876;2023-04-05T13:59:50;101096.41;;;9.11;40.93
59493;BME280;45497;43.996;22.876;2023-04-05T14:02:16;101110.34;;;9.04;41.32
59493;BME280;45497;43.996;22.876;2023-04-05T14:04:44;101107.25;;;8.90;40.94
59493;BME280;45497;43.996;22.876;2023-04-05T14:07:09;101104.38;;;8.84;41.16
59493;BME280;45497;43.996;22.876;2023-04-05T14:09:35;101102.75;;;8.73;41.31
59493;BME280;45497;43.996;22.876;2023-04-05T14:12:01;101119.50;;;8.64;41.39
59493;BME280;45497;43.996;22.876;2023-04-05T14:14:27;101105.25;;;8.74;42.14
59493;BME280;45497;43.996;22.876;2023-04-05T14:16:53;101086.34;;;8.97;41.19
59493;BME280;45497;43.996;22.876;2023-04-05T14:19:18;101118.66;;;9.09;41.46
59493;BME280;45497;43.996;22.876;2023-04-05T14:21:44;101112.91;;;8.77;41.20